Abbotsford Airport
CYXX : now visible

Airfield :











YOU CAN JOIN US ON...

 
LOGIN :

Register | Disclaimer

   EN    FR    IT 

 









Legend :    VFR   Marginal VFR   IFR   Intensive IFR   Very Intensive IFR
Visi :
Ceiling :
>= 8 km
>= 3000ft
5 to 8 km
1000 to 3000 ft
1500m to 5 km
500 to 1000 ft
800 to 1500m
200 to 500 ft
< 800m
< 200 ft
Symbols :   Thunderstorms  Fog  Heavy snow  Heavy precipitations  Wind > 20 kt






- Airport Elevation : 195 ft
- IATA code : YXX


CYXX - Abbotsford

CURRENT METAR :
  • 281500Z 06004KT 15SM SCT055 BKN070 03/M00 A2969 RMK SC4AC3 SLP057

EXPIRED METARs :
  • 281400Z 06004KT 350V090 15SM BKN055 BKN070 03/00 A2968 RMK SC6AC1 SLP053
  • 281300Z 04005KT 15SM SCT057 BKN075 03/00 A2967 RMK SC4AC3 SLP049

TAF TAF CYXX
Valid from the 28 at 12:00 until the 29 at 12:00 UTC


281138Z 2812/2912 05008KT P6SM FEW020 SCT040 OVC060
TEMPO 2812/2821 P6SM -SHRA SCT020 OVC040
FM282100 05008KT P6SM SCT020 OVC040
TEMPO 2821/2912 P6SM -SHRA BKN020 OVC040 RMK NXT FCST BY 281800Z
CZVR FIR / North America



MET'MAP, your aeronautical weather chart ! - Copyright ORBIFLY December 2007 - Disclaimer

ORBIFLY MET'MAP TEAM :

Programming & Development : Alexandra Zaïnal
Concept & original design : Baudouin d'Aumeries
Assistance for programming : Marc-Olivier Méhu
Technical & hardware support : Manuel Goepfert

Contact : metmap@orbifly.com




SOURCES & CREDITS :

   NOAA       Earth
Advisory